createdAt,value
2022-08-18T00:01:35.859Z,9.60
2022-08-18T00:04:32.393Z,9.82
2022-08-18T00:06:57.825Z,7.78
2022-08-18T00:09:31.487Z,8.43
2022-08-18T00:12:05.255Z,8.77
2022-08-18T00:14:34.016Z,8.65
2022-08-18T00:17:05.217Z,7.63
2022-08-18T00:19:46.516Z,11.23
2022-08-18T00:22:20.518Z,6.38
2022-08-18T00:24:54.113Z,7.28
2022-08-18T00:27:28.781Z,5.25
2022-08-18T00:30:03.684Z,11.93
2022-08-18T00:32:38.745Z,10.50
2022-08-18T00:35:10.379Z,7.03
2022-08-18T00:37:39.792Z,7.10
2022-08-18T00:40:27.238Z,14.52
2022-08-18T00:43:02.153Z,12.05
2022-08-18T00:45:39.878Z,5.40
2022-08-18T00:48:12.486Z,6.00
2022-08-18T00:50:47.853Z,5.95
2022-08-18T00:53:31.765Z,6.85
2022-08-18T00:56:05.739Z,8.43
2022-08-18T00:58:54.046Z,10.25
2022-08-18T01:01:28.892Z,9.98
2022-08-18T01:04:09.394Z,14.07
2022-08-18T01:07:08.283Z,8.63
2022-08-18T01:09:42.470Z,7.10
2022-08-18T01:12:28.004Z,10.27
2022-08-18T01:15:01.931Z,9.95
2022-08-18T01:17:52.065Z,7.53
2022-08-18T01:20:49.963Z,6.70
2022-08-18T01:23:21.820Z,7.97
2022-08-18T01:26:08.483Z,5.25
2022-08-18T01:28:51.108Z,7.18
2022-08-18T01:34:28.982Z,6.53
2022-08-18T01:36:58.274Z,8.98
2022-08-18T01:41:17.569Z,8.27
2022-08-18T01:42:22.277Z,8.25
2022-08-18T01:45:08.067Z,8.45
2022-08-18T01:47:47.126Z,10.60
2022-08-18T01:50:20.614Z,9.32
2022-08-18T01:52:53.897Z,6.30
2022-08-18T01:55:21.620Z,6.75
2022-08-18T01:57:52.335Z,6.82
2022-08-18T02:00:24.467Z,6.85
2022-08-18T02:03:01.709Z,9.13
2022-08-18T02:05:42.153Z,8.02
2022-08-18T02:08:17.857Z,9.43
2022-08-18T02:10:48.790Z,8.32
2022-08-18T02:13:20.631Z,11.18
2022-08-18T02:15:53.009Z,7.28
2022-08-18T02:18:47.183Z,12.80
2022-08-18T02:21:19.665Z,9.15
2022-08-18T02:23:53.143Z,8.63
2022-08-18T02:26:24.031Z,7.28
2022-08-18T02:28:54.740Z,9.02
2022-08-18T02:31:25.008Z,9.13
2022-08-18T02:34:00.325Z,7.55
2022-08-18T02:36:31.228Z,6.72
2022-08-18T02:39:00.795Z,8.13
2022-08-18T02:41:32.363Z,7.40
2022-08-18T02:44:03.332Z,8.70
2022-08-18T02:46:31.532Z,5.72
2022-08-18T02:49:04.491Z,8.10
2022-08-18T02:51:35.566Z,10.80
2022-08-18T02:54:05.982Z,7.95
2022-08-18T02:56:40.925Z,8.32
2022-08-18T02:59:17.772Z,9.13
2022-08-18T03:01:53.804Z,8.20
2022-08-18T03:04:38.579Z,11.60
2022-08-18T03:07:08.569Z,8.18
2022-08-18T03:09:42.011Z,10.45
2022-08-18T03:12:13.122Z,11.60
2022-08-18T03:14:44.134Z,12.02
2022-08-18T03:17:18.129Z,11.23
2022-08-18T03:19:47.747Z,11.13
2022-08-18T03:22:28.567Z,10.70
2022-08-18T03:24:58.518Z,10.90
2022-08-18T03:27:32.084Z,9.30
2022-08-18T03:30:06.270Z,11.63
2022-08-18T03:32:41.377Z,8.60
2022-08-18T03:35:20.071Z,12.02
2022-08-18T03:37:48.413Z,20.08
2022-08-18T03:40:17.077Z,19.90
2022-08-18T03:42:47.563Z,14.98
2022-08-18T03:45:17.816Z,10.70
2022-08-18T03:47:50.231Z,12.82
2022-08-18T03:50:28.986Z,8.35
2022-08-18T03:53:01.774Z,10.02
2022-08-18T03:55:29.910Z,7.15
2022-08-18T03:58:03.408Z,11.80
2022-08-18T04:00:37.529Z,9.50
2022-08-18T04:03:08.286Z,9.18
2022-08-18T04:05:41.150Z,8.73
2022-08-18T04:08:11.040Z,8.85
2022-08-18T04:10:55.597Z,8.65
2022-08-18T04:16:03.128Z,11.23
2022-08-18T04:18:35.447Z,8.60
2022-08-18T04:21:26.857Z,9.00
2022-08-18T04:24:04.231Z,9.40
2022-08-18T04:26:40.699Z,9.00
2022-08-18T04:29:15.708Z,8.70
2022-08-18T04:31:48.853Z,9.43
2022-08-18T04:34:20.846Z,6.60
2022-08-18T04:36:50.990Z,8.02
2022-08-18T04:39:42.538Z,6.90
2022-08-18T04:42:32.419Z,9.35
2022-08-18T04:45:23.911Z,8.77
2022-08-18T04:48:04.133Z,11.25
2022-08-18T04:50:35.576Z,12.48
2022-08-18T04:53:27.573Z,11.82
2022-08-18T04:56:02.306Z,7.90
2022-08-18T04:58:35.762Z,6.50
2022-08-18T05:01:06.214Z,8.23
2022-08-18T05:03:49.855Z,10.20
2022-08-18T05:06:19.665Z,9.57
2022-08-18T05:08:51.395Z,11.68
2022-08-18T05:11:19.441Z,8.88
2022-08-18T05:13:48.821Z,10.65
2022-08-18T05:16:27.630Z,12.50
2022-08-18T05:18:55.554Z,11.43
2022-08-18T05:21:27.254Z,11.70
2022-08-18T05:23:57.892Z,12.57
2022-08-18T05:26:28.845Z,9.77
2022-08-18T05:29:04.212Z,13.05
2022-08-18T05:31:51.850Z,19.35
2022-08-18T05:34:21.595Z,22.10
2022-08-18T05:37:27.212Z,12.93
2022-08-18T05:40:11.799Z,16.67
2022-08-18T05:42:42.456Z,9.45
2022-08-18T05:45:32.134Z,10.88
2022-08-18T05:48:04.841Z,14.50
2022-08-18T05:50:40.122Z,13.45
2022-08-18T05:53:42.532Z,9.63
2022-08-18T05:56:32.299Z,11.13
2022-08-18T05:59:05.027Z,15.10
2022-08-18T06:01:56.129Z,10.38
2022-08-18T06:04:59.587Z,8.63
2022-08-18T06:07:51.119Z,10.00
2022-08-18T06:10:20.498Z,9.10
2022-08-18T06:13:00.263Z,11.27
2022-08-18T06:15:40.133Z,11.98
2022-08-18T06:18:21.440Z,11.98
2022-08-18T06:21:39.251Z,12.63
2022-08-18T06:25:08.291Z,12.73
2022-08-18T06:28:16.555Z,9.52
2022-08-18T06:30:46.310Z,10.35
2022-08-18T06:33:45.946Z,10.45
2022-08-18T06:36:50.684Z,10.75
2022-08-18T06:40:04.685Z,11.82
2022-08-18T06:42:34.879Z,12.63
2022-08-18T06:45:16.684Z,16.13
2022-08-18T06:48:05.252Z,13.05
2022-08-18T06:51:27.812Z,12.80
2022-08-18T06:54:08.134Z,9.90
2022-08-18T06:56:52.129Z,8.18
2022-08-18T06:59:26.297Z,9.90
2022-08-18T07:05:03.678Z,6.38
2022-08-18T07:07:47.039Z,6.93
2022-08-18T07:10:20.005Z,5.95
2022-08-18T07:12:55.063Z,9.52
2022-08-18T07:15:27.780Z,6.22
2022-08-18T07:18:08.402Z,5.70
2022-08-18T07:20:54.002Z,5.78
2022-08-18T07:23:36.934Z,5.30
2022-08-18T07:26:21.647Z,5.65
2022-08-18T07:28:53.455Z,6.93
2022-08-18T07:31:39.635Z,5.63
2022-08-18T07:34:29.582Z,8.60
2022-08-18T07:37:07.410Z,8.45
2022-08-18T07:39:53.727Z,7.10
2022-08-18T07:43:00.566Z,7.93
2022-08-18T07:45:48.796Z,7.57
2022-08-18T07:48:38.618Z,7.25
2022-08-18T07:51:31.738Z,11.88
2022-08-18T07:54:53.269Z,6.10
2022-08-18T07:57:42.428Z,8.20
2022-08-18T08:00:54.786Z,10.60
2022-08-18T08:03:36.769Z,8.82
2022-08-18T08:09:51.897Z,12.38
2022-08-18T08:12:32.268Z,10.35
2022-08-18T08:15:44.539Z,7.05
2022-08-18T08:18:25.493Z,9.45
2022-08-18T08:20:59.725Z,15.63
2022-08-18T08:23:46.689Z,14.52
2022-08-18T08:26:28.346Z,13.07
2022-08-18T08:29:33.931Z,10.60
2022-08-18T08:32:18.938Z,10.68
2022-08-18T08:35:11.482Z,15.50
2022-08-18T08:38:39.335Z,18.48
2022-08-18T08:41:15.410Z,12.88
2022-08-18T08:44:00.401Z,13.18
2022-08-18T08:46:37.129Z,9.10
2022-08-18T08:49:20.850Z,10.65
2022-08-18T08:52:01.462Z,8.93
2022-08-18T08:55:03.075Z,11.90
2022-08-18T08:57:58.105Z,9.43
2022-08-18T09:00:32.256Z,11.82
2022-08-18T09:03:42.709Z,13.88
2022-08-18T09:06:33.162Z,8.93
2022-08-18T09:09:28.640Z,7.75
2022-08-18T09:12:25.884Z,11.43
2022-08-18T09:15:33.986Z,12.43
2022-08-18T09:18:06.188Z,8.02
2022-08-18T09:21:13.676Z,8.18
2022-08-18T09:23:47.335Z,9.50
2022-08-18T09:27:00.219Z,12.27
2022-08-18T09:29:44.288Z,13.18
2022-08-18T09:32:29.777Z,8.60
2022-08-18T09:35:22.985Z,17.63
2022-08-18T09:38:35.879Z,12.40
2022-08-18T09:41:33.831Z,8.35
2022-08-18T09:44:21.559Z,6.35
2022-08-18T09:46:58.113Z,6.38
2022-08-18T09:49:41.785Z,10.75
2022-08-18T09:55:51.986Z,11.25
2022-08-18T09:58:34.310Z,6.68
2022-08-18T10:01:42.633Z,8.00
2022-08-18T10:04:56.216Z,7.88
2022-08-18T10:07:43.588Z,13.10
2022-08-18T10:13:46.572Z,8.02
2022-08-18T10:17:13.427Z,10.07
2022-08-18T10:19:55.218Z,5.45
2022-08-18T10:22:54.961Z,8.23
2022-08-18T10:25:51.400Z,8.50
2022-08-18T10:28:55.573Z,11.05
2022-08-18T10:32:00.159Z,10.52
2022-08-18T10:34:53.095Z,4.35
2022-08-18T10:37:46.867Z,5.75
2022-08-18T10:40:26.440Z,7.10
2022-08-18T10:43:46.187Z,5.68
2022-08-18T10:49:26.605Z,8.30
2022-08-18T10:52:23.423Z,3.75
2022-08-18T10:55:22.175Z,5.85
2022-08-18T10:58:48.772Z,5.18
2022-08-18T11:02:20.557Z,5.28
2022-08-18T11:07:42.911Z,6.95
2022-08-18T11:11:33.381Z,5.30
2022-08-18T11:14:38.074Z,3.55
2022-08-18T11:17:46.336Z,7.53
2022-08-18T11:20:21.727Z,2.90
2022-08-18T11:23:05.419Z,7.25
2022-08-18T11:25:40.965Z,9.02
2022-08-18T11:28:27.774Z,9.47
2022-08-18T11:31:00.283Z,5.10
2022-08-18T11:33:30.961Z,5.97
2022-08-18T11:36:08.999Z,4.90
2022-08-18T11:38:39.525Z,5.80
2022-08-18T11:41:26.296Z,3.92
2022-08-18T11:44:22.849Z,7.47
2022-08-18T11:47:11.493Z,4.50
2022-08-18T11:49:58.930Z,5.47
2022-08-18T11:52:34.558Z,4.13
2022-08-18T11:55:38.868Z,2.67
2022-08-18T11:58:33.362Z,8.23
2022-08-18T12:01:05.303Z,3.17
2022-08-18T12:03:52.104Z,5.10
2022-08-18T12:06:46.087Z,2.55
2022-08-18T12:10:16.549Z,2.30
2022-08-18T12:12:51.760Z,2.67
2022-08-18T12:15:24.776Z,4.05
2022-08-18T12:17:54.565Z,3.63
2022-08-18T12:20:24.912Z,3.00
2022-08-18T12:22:58.675Z,5.35
2022-08-18T12:25:29.750Z,2.38
2022-08-18T12:28:01.496Z,2.28
2022-08-18T12:30:32.974Z,3.88
2022-08-18T12:33:12.426Z,6.70
2022-08-18T12:35:43.463Z,3.42
2022-08-18T12:38:14.604Z,7.88
2022-08-18T12:40:47.022Z,5.63
2022-08-18T12:43:14.957Z,4.25
2022-08-18T12:45:45.029Z,7.47
2022-08-18T12:48:15.028Z,4.07
2022-08-18T12:53:58.487Z,2.85
2022-08-18T12:56:35.138Z,4.95
2022-08-18T12:59:10.992Z,3.55
2022-08-18T13:01:43.886Z,2.80
2022-08-18T13:04:14.052Z,3.10
2022-08-18T13:07:00.217Z,2.30
2022-08-18T13:09:52.823Z,2.58
2022-08-18T13:12:28.562Z,4.30
2022-08-18T13:15:04.087Z,1.70
2022-08-18T13:17:41.391Z,2.95
2022-08-18T13:20:19.108Z,2.95
2022-08-18T13:22:50.375Z,3.67
2022-08-18T13:25:33.183Z,3.88
2022-08-18T13:28:09.903Z,7.07
2022-08-18T13:30:39.753Z,5.85
2022-08-18T13:33:35.391Z,3.95
2022-08-18T13:36:01.659Z,4.65
2022-08-18T13:38:34.240Z,6.20
2022-08-18T13:41:09.736Z,4.30
2022-08-18T13:43:48.965Z,3.88
2022-08-18T13:46:29.879Z,5.93
2022-08-18T13:49:05.179Z,4.65
2022-08-18T13:51:40.449Z,3.65
2022-08-18T13:54:30.969Z,2.78
2022-08-18T13:57:03.334Z,2.58
2022-08-18T13:59:35.157Z,2.00
2022-08-18T14:02:11.635Z,2.70
2022-08-18T14:04:43.113Z,2.42
2022-08-18T14:07:18.838Z,6.07
2022-08-18T14:09:46.852Z,4.80
2022-08-18T14:12:31.132Z,3.30
2022-08-18T14:15:09.491Z,2.78
2022-08-18T14:17:40.670Z,5.25
2022-08-18T14:20:33.992Z,4.53
2022-08-18T14:23:32.300Z,3.35
2022-08-18T14:26:24.313Z,3.78
2022-08-18T14:28:59.888Z,4.43
2022-08-18T14:31:34.385Z,7.40
2022-08-18T14:34:06.985Z,3.58
2022-08-18T14:36:39.780Z,4.45
2022-08-18T14:39:08.433Z,3.25
2022-08-18T14:41:40.903Z,4.93
2022-08-18T14:44:23.901Z,5.25
2022-08-18T14:47:00.520Z,7.25
2022-08-18T14:49:35.427Z,6.53
2022-08-18T14:52:15.589Z,4.40
2022-08-18T14:54:51.112Z,2.92
2022-08-18T14:59:53.709Z,4.65
2022-08-18T15:02:28.265Z,6.25
2022-08-18T15:05:00.409Z,5.68
2022-08-18T15:07:35.310Z,4.35
2022-08-18T15:10:14.888Z,10.73
2022-08-18T15:12:50.423Z,10.93
2022-08-18T15:15:18.218Z,4.65
2022-08-18T15:17:52.628Z,7.32
2022-08-18T15:20:29.044Z,7.78
2022-08-18T15:23:28.235Z,5.55
2022-08-18T15:26:00.144Z,8.68
2022-08-18T15:28:31.491Z,6.35
2022-08-18T15:33:54.762Z,7.70
2022-08-18T15:36:29.801Z,7.00
2022-08-18T15:39:01.206Z,9.30
2022-08-18T15:41:45.545Z,5.38
2022-08-18T15:44:19.341Z,6.65
2022-08-18T15:46:53.303Z,6.63
2022-08-18T15:49:26.716Z,7.93
2022-08-18T15:51:57.263Z,6.68
2022-08-18T15:54:28.200Z,5.55
2022-08-18T15:57:01.717Z,6.57
2022-08-18T15:59:39.913Z,6.05
2022-08-18T16:02:19.122Z,4.10
2022-08-18T16:04:50.761Z,6.82
2022-08-18T16:07:25.043Z,3.70
2022-08-18T16:10:08.350Z,5.63
2022-08-18T16:12:38.025Z,3.95
2022-08-18T16:15:19.657Z,3.70
2022-08-18T16:18:03.752Z,5.63
2022-08-18T16:20:42.076Z,5.40
2022-08-18T16:23:14.892Z,5.90
2022-08-18T16:25:45.859Z,2.28
2022-08-18T16:28:16.243Z,5.38
2022-08-18T16:30:46.069Z,3.38
2022-08-18T16:33:15.543Z,4.15
2022-08-18T16:35:45.410Z,2.17
2022-08-18T16:38:12.780Z,6.75
2022-08-18T16:40:43.716Z,4.72
2022-08-18T16:43:16.433Z,4.07
2022-08-18T16:45:46.061Z,6.15
2022-08-18T16:48:16.979Z,5.95
2022-08-18T16:50:49.507Z,4.07
2022-08-18T16:53:19.216Z,5.70
2022-08-18T16:55:48.486Z,6.60
2022-08-18T16:58:38.691Z,5.32
2022-08-18T17:01:33.822Z,7.50
2022-08-18T17:04:22.581Z,5.72
2022-08-18T17:06:52.161Z,8.23
2022-08-18T17:09:24.476Z,9.43
2022-08-18T17:11:53.240Z,9.68
2022-08-18T17:14:26.163Z,8.93
2022-08-18T17:16:55.439Z,6.30
2022-08-18T17:19:26.269Z,7.43
2022-08-18T17:21:58.330Z,9.75
2022-08-18T17:24:31.902Z,11.18
2022-08-18T17:27:37.544Z,11.82
2022-08-18T17:30:11.880Z,7.68
2022-08-18T17:35:29.146Z,11.10
2022-08-18T17:38:07.314Z,9.50
2022-08-18T17:40:46.562Z,8.77
2022-08-18T17:43:31.745Z,12.50
2022-08-18T17:46:33.408Z,12.35
2022-08-18T17:50:06.907Z,7.50
2022-08-18T17:52:54.148Z,6.80
2022-08-18T17:55:29.099Z,10.20
2022-08-18T17:58:18.755Z,6.25
2022-08-18T18:00:50.388Z,9.45
2022-08-18T18:03:19.925Z,9.65
2022-08-18T18:06:25.608Z,12.23
2022-08-18T18:09:16.713Z,8.45
2022-08-18T18:11:49.907Z,12.63
2022-08-18T18:14:28.942Z,13.15
2022-08-18T18:17:43.515Z,9.27
2022-08-18T18:20:39.887Z,11.52
2022-08-18T18:23:26.049Z,9.52
2022-08-18T18:25:58.310Z,20.08
2022-08-18T18:28:32.297Z,14.15
2022-08-18T18:31:28.123Z,14.65
2022-08-18T18:34:23.574Z,20.63
2022-08-18T18:37:02.306Z,15.55
2022-08-18T18:39:50.837Z,18.67
2022-08-18T18:42:30.010Z,14.05
2022-08-18T18:45:00.786Z,20.02
2022-08-18T18:47:52.936Z,15.95
2022-08-18T18:51:10.412Z,18.88
2022-08-18T18:54:08.639Z,15.50
2022-08-18T18:56:53.320Z,19.90
2022-08-18T19:00:16.794Z,19.63
2022-08-18T19:03:12.882Z,18.13
2022-08-18T19:06:29.062Z,16.83
2022-08-18T19:09:34.084Z,22.05
2022-08-18T19:12:46.416Z,28.05
2022-08-18T19:15:19.954Z,27.77
2022-08-18T19:18:04.828Z,25.25
2022-08-18T19:22:01.739Z,20.08
2022-08-18T19:24:17.383Z,18.15
2022-08-18T19:26:56.435Z,16.30
2022-08-18T19:29:30.580Z,16.58
2022-08-18T19:32:44.890Z,19.30
2022-08-18T19:35:23.098Z,16.20
2022-08-18T19:38:33.602Z,17.38
2022-08-18T19:42:04.642Z,18.48
2022-08-18T19:45:00.310Z,16.65
2022-08-18T19:48:01.599Z,23.73
2022-08-18T19:50:39.713Z,13.63
2022-08-18T19:53:56.481Z,12.52
2022-08-18T19:56:54.086Z,15.98
2022-08-18T19:59:35.213Z,9.68
2022-08-18T20:02:27.488Z,13.27
2022-08-18T20:05:34.754Z,12.68
2022-08-18T20:08:39.366Z,9.63
2022-08-18T20:11:41.491Z,14.77
2022-08-18T20:14:19.783Z,9.75
2022-08-18T20:17:19.737Z,15.85
2022-08-18T20:20:13.034Z,13.38
2022-08-18T20:22:47.122Z,13.10
2022-08-18T20:25:55.842Z,11.68
2022-08-18T20:28:35.827Z,11.95
2022-08-18T20:31:18.891Z,16.35
2022-08-18T20:34:20.372Z,17.42
2022-08-18T20:36:52.468Z,20.13
2022-08-18T20:39:57.206Z,13.75
2022-08-18T20:42:30.470Z,18.15
2022-08-18T20:45:36.262Z,16.48
2022-08-18T20:48:31.920Z,10.68
2022-08-18T20:51:14.278Z,13.90
2022-08-18T20:54:13.740Z,18.40
2022-08-18T20:56:58.062Z,14.55
2022-08-18T20:59:41.625Z,15.48
2022-08-18T21:02:35.842Z,12.95
2022-08-18T21:05:07.813Z,8.90
2022-08-18T21:08:18.781Z,16.55
2022-08-18T21:11:34.852Z,13.73
2022-08-18T21:14:04.436Z,17.13
2022-08-18T21:16:45.746Z,17.30
2022-08-18T21:19:32.566Z,17.58
2022-08-18T21:22:15.355Z,12.63
2022-08-18T21:24:52.836Z,11.52
2022-08-18T21:27:44.208Z,14.55
2022-08-18T21:30:24.681Z,13.27
2022-08-18T21:32:55.096Z,12.00
2022-08-18T21:35:39.051Z,16.45
2022-08-18T21:38:30.890Z,11.00
2022-08-18T21:41:00.805Z,8.60
2022-08-18T21:43:53.526Z,14.73
2022-08-18T21:46:26.515Z,13.63
2022-08-18T21:49:18.416Z,9.95
2022-08-18T21:51:52.740Z,9.27
2022-08-18T21:54:25.058Z,9.07
2022-08-18T21:57:26.380Z,10.85
2022-08-18T22:00:20.549Z,12.13
2022-08-18T22:02:53.331Z,10.55
2022-08-18T22:05:59.142Z,15.73
2022-08-18T22:08:30.408Z,11.57
2022-08-18T22:12:01.212Z,9.07
2022-08-18T22:14:54.742Z,13.25
2022-08-18T22:18:13.357Z,13.13
2022-08-18T22:21:12.259Z,11.35
2022-08-18T22:24:08.588Z,12.80
2022-08-18T22:26:40.167Z,16.98
2022-08-18T22:29:54.198Z,12.43
2022-08-18T22:32:25.896Z,12.38
2022-08-18T22:34:55.947Z,11.65
2022-08-18T22:37:27.829Z,11.50
2022-08-18T22:40:02.047Z,14.38
2022-08-18T22:42:35.001Z,13.90
2022-08-18T22:45:15.869Z,10.13
2022-08-18T22:47:45.431Z,11.18
2022-08-18T22:50:15.846Z,11.93
2022-08-18T22:52:50.419Z,7.95
2022-08-18T22:55:20.872Z,9.30
2022-08-18T22:57:59.406Z,12.13
2022-08-18T23:00:37.745Z,10.05
2022-08-18T23:03:09.936Z,7.60
2022-08-18T23:05:44.842Z,9.75
2022-08-18T23:08:12.498Z,17.52
2022-08-18T23:10:42.736Z,12.85
2022-08-18T23:13:11.994Z,11.90
2022-08-18T23:15:49.668Z,9.98
2022-08-18T23:18:20.219Z,11.07
2022-08-18T23:20:51.731Z,10.35
2022-08-18T23:23:24.051Z,11.07
2022-08-18T23:25:56.432Z,8.98
2022-08-18T23:28:27.432Z,11.00
2022-08-18T23:30:56.803Z,13.80
2022-08-18T23:33:36.630Z,18.40
2022-08-18T23:36:09.866Z,13.07
2022-08-18T23:38:38.665Z,12.55
2022-08-18T23:41:16.103Z,10.27
2022-08-18T23:43:48.234Z,11.82
2022-08-18T23:46:25.656Z,9.93
2022-08-18T23:48:54.001Z,8.70
2022-08-18T23:51:37.446Z,13.80
2022-08-18T23:54:37.398Z,9.87
2022-08-18T23:57:07.026Z,6.13
2022-08-18T23:59:37.917Z,14.40
